sensor_id;sensor_type;location;lat;lon;timestamp;pressure;altitude;pressure_sealevel;temperature;humidity
39265;BME280;42646;51.910;7.724;2023-05-11T00:02:19;100765.84;;;13.23;100.00
39265;BME280;42646;51.910;7.724;2023-05-11T00:04:47;100763.28;;;13.22;100.00
39265;BME280;42646;51.910;7.724;2023-05-11T00:07:15;100755.28;;;13.22;100.00
39265;BME280;42646;51.910;7.724;2023-05-11T00:09:42;100758.06;;;13.20;100.00
39265;BME280;42646;51.910;7.724;2023-05-11T00:12:10;100755.56;;;13.19;100.00
39265;BME280;42646;51.910;7.724;2023-05-11T00:14:40;100753.06;;;13.17;100.00
39265;BME280;42646;51.910;7.724;2023-05-11T00:17:09;100753.19;;;13.16;100.00
39265;BME280;42646;51.910;7.724;2023-05-11T00:19:37;100755.84;;;13.16;100.00
39265;BME280;42646;51.910;7.724;2023-05-11T00:22:05;100766.84;;;13.13;100.00
39265;BME280;42646;51.910;7.724;2023-05-11T00:24:33;100759.00;;;13.11;100.00
39265;BME280;42646;51.910;7.724;2023-05-11T00:27:06;100763.50;;;13.10;100.00
39265;BME280;42646;51.910;7.724;2023-05-11T00:29:34;100762.81;;;13.08;100.00
39265;BME280;42646;51.910;7.724;2023-05-11T00:32:01;100765.63;;;13.07;100.00
39265;BME280;42646;51.910;7.724;2023-05-11T00:34:30;100769.31;;;13.06;100.00
39265;BME280;42646;51.910;7.724;2023-05-11T00:36:59;100762.97;;;13.07;100.00
39265;BME280;42646;51.910;7.724;2023-05-11T00:39:27;100763.81;;;13.07;100.00
39265;BME280;42646;51.910;7.724;2023-05-11T00:41:55;100762.97;;;13.07;100.00
39265;BME280;42646;51.910;7.724;2023-05-11T00:44:23;100756.78;;;13.06;100.00
39265;BME280;42646;51.910;7.724;2023-05-11T00:46:51;100757.78;;;13.05;100.00
39265;BME280;42646;51.910;7.724;2023-05-11T00:49:19;100755.94;;;13.06;100.00
39265;BME280;42646;51.910;7.724;2023-05-11T00:51:49;100760.59;;;13.04;100.00
39265;BME280;42646;51.910;7.724;2023-05-11T00:54:18;100757.22;;;13.02;100.00
39265;BME280;42646;51.910;7.724;2023-05-11T00:56:46;100756.41;;;13.01;100.00
39265;BME280;42646;51.910;7.724;2023-05-11T00:59:14;100755.72;;;12.99;100.00
39265;BME280;42646;51.910;7.724;2023-05-11T01:01:42;100762.03;;;12.98;100.00
39265;BME280;42646;51.910;7.724;2023-05-11T01:04:11;100759.66;;;12.95;100.00
39265;BME280;42646;51.910;7.724;2023-05-11T01:07:09;100753.66;;;12.93;100.00
39265;BME280;42646;51.910;7.724;2023-05-11T01:09:49;100752.09;;;12.91;100.00
39265;BME280;42646;51.910;7.724;2023-05-11T01:12:28;100749.59;;;12.89;100.00
39265;BME280;42646;51.910;7.724;2023-05-11T01:15:01;100748.03;;;12.87;100.00
39265;BME280;42646;51.910;7.724;2023-05-11T01:17:42;100752.72;;;12.84;100.00
39265;BME280;42646;51.910;7.724;2023-05-11T01:20:19;100750.34;;;12.81;100.00
39265;BME280;42646;51.910;7.724;2023-05-11T01:23:09;100747.53;;;12.83;100.00
39265;BME280;42646;51.910;7.724;2023-05-11T01:26:24;100747.69;;;12.81;100.00
39265;BME280;42646;51.910;7.724;2023-05-11T01:29:22;100740.50;;;12.82;100.00
39265;BME280;42646;51.910;7.724;2023-05-11T01:32:05;100746.97;;;12.79;100.00
39265;BME280;42646;51.910;7.724;2023-05-11T01:34:35;100743.63;;;12.77;100.00
39265;BME280;42646;51.910;7.724;2023-05-11T01:37:09;100747.28;;;12.76;100.00
39265;BME280;42646;51.910;7.724;2023-05-11T01:39:42;100749.25;;;12.74;100.00
39265;BME280;42646;51.910;7.724;2023-05-11T01:42:15;100748.41;;;12.74;100.00
39265;BME280;42646;51.910;7.724;2023-05-11T01:44:51;100753.06;;;12.72;100.00
39265;BME280;42646;51.910;7.724;2023-05-11T01:47:22;100757.56;;;12.71;100.00
39265;BME280;42646;51.910;7.724;2023-05-11T01:49:53;100759.41;;;12.71;100.00
39265;BME280;42646;51.910;7.724;2023-05-11T01:52:24;100755.19;;;12.68;100.00
39265;BME280;42646;51.910;7.724;2023-05-11T01:54:53;100753.69;;;12.66;100.00
39265;BME280;42646;51.910;7.724;2023-05-11T01:57:24;100765.50;;;12.63;100.00
39265;BME280;42646;51.910;7.724;2023-05-11T01:59:54;100764.78;;;12.61;100.00
39265;BME280;42646;51.910;7.724;2023-05-11T02:02:27;100763.13;;;12.60;100.00
39265;BME280;42646;51.910;7.724;2023-05-11T02:04:56;100764.13;;;12.59;100.00
39265;BME280;42646;51.910;7.724;2023-05-11T02:07:27;100769.59;;;12.57;100.00
39265;BME280;42646;51.910;7.724;2023-05-11T02:09:57;100773.25;;;12.56;100.00
39265;BME280;42646;51.910;7.724;2023-05-11T02:12:30;100773.56;;;12.53;100.00
39265;BME280;42646;51.910;7.724;2023-05-11T02:15:00;100770.03;;;12.53;100.00
39265;BME280;42646;51.910;7.724;2023-05-11T02:17:31;100771.88;;;12.52;100.00
39265;BME280;42646;51.910;7.724;2023-05-11T02:20:00;100762.47;;;12.48;100.00
39265;BME280;42646;51.910;7.724;2023-05-11T02:22:31;100765.28;;;12.47;100.00
39265;BME280;42646;51.910;7.724;2023-05-11T02:24:59;100765.47;;;12.45;100.00
39265;BME280;42646;51.910;7.724;2023-05-11T02:27:29;100764.91;;;12.42;100.00
39265;BME280;42646;51.910;7.724;2023-05-11T02:29:58;100770.38;;;12.40;100.00
39265;BME280;42646;51.910;7.724;2023-05-11T02:32:27;100774.06;;;12.39;100.00
39265;BME280;42646;51.910;7.724;2023-05-11T02:35:00;100769.66;;;12.38;100.00
39265;BME280;42646;51.910;7.724;2023-05-11T02:37:33;100769.84;;;12.37;100.00
39265;BME280;42646;51.910;7.724;2023-05-11T02:40:05;100769.97;;;12.35;100.00
39265;BME280;42646;51.910;7.724;2023-05-11T02:42:37;100772.81;;;12.34;100.00
39265;BME280;42646;51.910;7.724;2023-05-11T02:45:11;100766.59;;;12.33;100.00
39265;BME280;42646;51.910;7.724;2023-05-11T02:47:44;100778.28;;;12.32;100.00
39265;BME280;42646;51.910;7.724;2023-05-11T02:50:19;100774.91;;;12.30;100.00
39265;BME280;42646;51.910;7.724;2023-05-11T02:52:52;100776.91;;;12.28;100.00
39265;BME280;42646;51.910;7.724;2023-05-11T02:55:21;100778.72;;;12.27;100.00
39265;BME280;42646;51.910;7.724;2023-05-11T02:57:51;100773.53;;;12.26;100.00
39265;BME280;42646;51.910;7.724;2023-05-11T03:00:19;100778.84;;;12.26;100.00
39265;BME280;42646;51.910;7.724;2023-05-11T03:02:48;100781.53;;;12.26;100.00
39265;BME280;42646;51.910;7.724;2023-05-11T03:05:20;100778.00;;;12.25;100.00
39265;BME280;42646;51.910;7.724;2023-05-11T03:07:50;100781.69;;;12.24;100.00
39265;BME280;42646;51.910;7.724;2023-05-11T03:10:18;100780.84;;;12.24;100.00
39265;BME280;42646;51.910;7.724;2023-05-11T03:12:48;100784.50;;;12.23;100.00
39265;BME280;42646;51.910;7.724;2023-05-11T03:15:16;100777.47;;;12.22;100.00
39265;BME280;42646;51.910;7.724;2023-05-11T03:17:47;100783.66;;;12.22;100.00
39265;BME280;42646;51.910;7.724;2023-05-11T03:20:21;100780.28;;;12.20;100.00
39265;BME280;42646;51.910;7.724;2023-05-11T03:22:50;100780.44;;;12.19;100.00
39265;BME280;42646;51.910;7.724;2023-05-11T03:25:20;100777.75;;;12.19;100.00
39265;BME280;42646;51.910;7.724;2023-05-11T03:27:49;100781.28;;;12.19;100.00
39265;BME280;42646;51.910;7.724;2023-05-11T03:30:22;100781.28;;;12.19;100.00
39265;BME280;42646;51.910;7.724;2023-05-11T03:32:54;100782.94;;;12.20;100.00
39265;BME280;42646;51.910;7.724;2023-05-11T03:35:28;100780.44;;;12.19;100.00
39265;BME280;42646;51.910;7.724;2023-05-11T03:37:58;100781.41;;;12.18;100.00
39265;BME280;42646;51.910;7.724;2023-05-11T03:40:26;100778.75;;;12.18;100.00
39265;BME280;42646;51.910;7.724;2023-05-11T03:43:01;100779.75;;;12.17;100.00
39265;BME280;42646;51.910;7.724;2023-05-11T03:45:29;100784.09;;;12.18;100.00
39265;BME280;42646;51.910;7.724;2023-05-11T03:48:02;100776.09;;;12.18;100.00
39265;BME280;42646;51.910;7.724;2023-05-11T03:50:32;100777.91;;;12.17;100.00
39265;BME280;42646;51.910;7.724;2023-05-11T03:53:06;100779.75;;;12.17;100.00
39265;BME280;42646;51.910;7.724;2023-05-11T03:55:34;100773.41;;;12.18;100.00
39265;BME280;42646;51.910;7.724;2023-05-11T03:58:05;100767.25;;;12.17;100.00
39265;BME280;42646;51.910;7.724;2023-05-11T04:00:37;100775.09;;;12.19;100.00
39265;BME280;42646;51.910;7.724;2023-05-11T04:03:05;100780.28;;;12.20;100.00
39265;BME280;42646;51.910;7.724;2023-05-11T04:05:35;100772.28;;;12.20;100.00
39265;BME280;42646;51.910;7.724;2023-05-11T04:08:05;100767.78;;;12.21;100.00
39265;BME280;42646;51.910;7.724;2023-05-11T04:10:39;100772.16;;;12.22;100.00
39265;BME280;42646;51.910;7.724;2023-05-11T04:13:07;100770.44;;;12.21;100.00
39265;BME280;42646;51.910;7.724;2023-05-11T04:15:36;100768.78;;;12.20;100.00
39265;BME280;42646;51.910;7.724;2023-05-11T04:18:04;100768.78;;;12.20;100.00
39265;BME280;42646;51.910;7.724;2023-05-11T04:20:32;100764.59;;;12.17;100.00
39265;BME280;42646;51.910;7.724;2023-05-11T04:23:01;100766.41;;;12.17;100.00
39265;BME280;42646;51.910;7.724;2023-05-11T04:25:29;100769.06;;;12.17;100.00
39265;BME280;42646;51.910;7.724;2023-05-11T04:27:57;100771.75;;;12.17;100.00
39265;BME280;42646;51.910;7.724;2023-05-11T04:30:30;100768.38;;;12.15;100.00
39265;BME280;42646;51.910;7.724;2023-05-11T04:33:23;100776.38;;;12.15;100.00
39265;BME280;42646;51.910;7.724;2023-05-11T04:35:53;100774.84;;;12.12;100.00
39265;BME280;42646;51.910;7.724;2023-05-11T04:38:25;100776.66;;;12.12;100.00
39265;BME280;42646;51.910;7.724;2023-05-11T04:40:53;100770.66;;;12.10;100.00
39265;BME280;42646;51.910;7.724;2023-05-11T04:43:21;100776.94;;;12.09;100.00
39265;BME280;42646;51.910;7.724;2023-05-11T04:45:50;100777.25;;;12.06;100.00
39265;BME280;42646;51.910;7.724;2023-05-11T04:48:22;100773.03;;;12.03;100.00
39265;BME280;42646;51.910;7.724;2023-05-11T04:50:52;100775.84;;;12.01;100.00
39265;BME280;42646;51.910;7.724;2023-05-11T04:53:25;100782.16;;;12.00;100.00
39265;BME280;42646;51.910;7.724;2023-05-11T04:55:53;100781.47;;;11.98;100.00
39265;BME280;42646;51.910;7.724;2023-05-11T04:58:23;100782.31;;;11.99;100.00
39265;BME280;42646;51.910;7.724;2023-05-11T05:00:52;100782.44;;;11.97;100.00
39265;BME280;42646;51.910;7.724;2023-05-11T05:03:20;100787.78;;;11.97;100.00
39265;BME280;42646;51.910;7.724;2023-05-11T05:05:48;100782.44;;;11.97;100.00
39265;BME280;42646;51.910;7.724;2023-05-11T05:08:16;100787.94;;;11.96;100.00
39265;BME280;42646;51.910;7.724;2023-05-11T05:10:45;100797.75;;;11.95;100.00
39265;BME280;42646;51.910;7.724;2023-05-11T05:13:15;100793.25;;;11.96;100.00
39265;BME280;42646;51.910;7.724;2023-05-11T05:15:43;100807.44;;;11.96;100.00
39265;BME280;42646;51.910;7.724;2023-05-11T05:18:11;100802.81;;;11.98;100.00
39265;BME280;42646;51.910;7.724;2023-05-11T05:20:40;100801.69;;;12.01;100.00
39265;BME280;42646;51.910;7.724;2023-05-11T05:23:07;100809.53;;;12.02;100.00
39265;BME280;42646;51.910;7.724;2023-05-11T05:25:35;100814.72;;;12.04;100.00
39265;BME280;42646;51.910;7.724;2023-05-11T05:28:06;100820.91;;;12.05;100.00
39265;BME280;42646;51.910;7.724;2023-05-11T05:30:34;100809.25;;;12.06;100.00
39265;BME280;42646;51.910;7.724;2023-05-11T05:33:03;100803.75;;;12.07;100.00
39265;BME280;42646;51.910;7.724;2023-05-11T05:35:33;100799.41;;;12.06;100.00
39265;BME280;42646;51.910;7.724;2023-05-11T05:38:02;100797.59;;;12.07;100.00
39265;BME280;42646;51.910;7.724;2023-05-11T05:40:30;100798.44;;;12.07;100.00
39265;BME280;42646;51.910;7.724;2023-05-11T05:43:01;100810.91;;;12.07;100.00
39265;BME280;42646;51.910;7.724;2023-05-11T05:45:30;100814.28;;;12.09;100.00
39265;BME280;42646;51.910;7.724;2023-05-11T05:48:00;100813.00;;;12.13;100.00
39265;BME280;42646;51.910;7.724;2023-05-11T05:50:29;100826.59;;;12.19;100.00
39265;BME280;42646;51.910;7.724;2023-05-11T05:52:57;100824.50;;;12.23;100.00
39265;BME280;42646;51.910;7.724;2023-05-11T05:55:26;100832.75;;;12.29;100.00
39265;BME280;42646;51.910;7.724;2023-05-11T05:57:55;100829.66;;;12.34;100.00
39265;BME280;42646;51.910;7.724;2023-05-11T06:00:23;100835.25;;;12.41;100.00
39265;BME280;42646;51.910;7.724;2023-05-11T06:03:01;100839.28;;;12.45;100.00
39265;BME280;42646;51.910;7.724;2023-05-11T06:05:29;100843.22;;;12.50;100.00
39265;BME280;42646;51.910;7.724;2023-05-11T06:07:57;100839.28;;;12.54;100.00
39265;BME280;42646;51.910;7.724;2023-05-11T06:10:36;100837.84;;;12.60;100.00
39265;BME280;42646;51.910;7.724;2023-05-11T06:13:07;100831.09;;;12.66;100.00
39265;BME280;42646;51.910;7.724;2023-05-11T06:15:37;100840.31;;;12.71;100.00
39265;BME280;42646;51.910;7.724;2023-05-11T06:18:19;100835.38;;;12.76;100.00
39265;BME280;42646;51.910;7.724;2023-05-11T06:20:47;100833.97;;;12.82;100.00
39265;BME280;42646;51.910;7.724;2023-05-11T06:23:16;100832.53;;;12.88;100.00
39265;BME280;42646;51.910;7.724;2023-05-11T06:25:47;100830.94;;;12.95;100.00
39265;BME280;42646;51.910;7.724;2023-05-11T06:28:15;100840.69;;;13.04;100.00
39265;BME280;42646;51.910;7.724;2023-05-11T06:30:43;100841.66;;;13.13;100.00
39265;BME280;42646;51.910;7.724;2023-05-11T06:33:11;100840.75;;;13.22;100.00
39265;BME280;42646;51.910;7.724;2023-05-11T06:35:40;100837.34;;;13.29;100.00
39265;BME280;42646;51.910;7.724;2023-05-11T06:38:11;100832.25;;;13.36;100.00
39265;BME280;42646;51.910;7.724;2023-05-11T06:40:40;100837.97;;;13.41;100.00
39265;BME280;42646;51.910;7.724;2023-05-11T06:43:12;100834.69;;;13.47;100.00
39265;BME280;42646;51.910;7.724;2023-05-11T06:45:45;100835.09;;;13.52;100.00
39265;BME280;42646;51.910;7.724;2023-05-11T06:48:14;100835.59;;;13.56;100.00
39265;BME280;42646;51.910;7.724;2023-05-11T06:50:43;100837.97;;;13.59;100.00
39265;BME280;42646;51.910;7.724;2023-05-11T06:53:11;100834.81;;;13.63;100.00
39265;BME280;42646;51.910;7.724;2023-05-11T06:55:40;100837.75;;;13.70;100.00
39265;BME280;42646;51.910;7.724;2023-05-11T06:58:09;100836.28;;;13.76;100.00
39265;BME280;42646;51.910;7.724;2023-05-11T07:00:36;100832.13;;;13.81;100.00
39265;BME280;42646;51.910;7.724;2023-05-11T07:03:06;100839.56;;;13.87;100.00
39265;BME280;42646;51.910;7.724;2023-05-11T07:05:34;100837.94;;;13.95;100.00
39265;BME280;42646;51.910;7.724;2023-05-11T07:08:04;100830.97;;;14.02;100.00
39265;BME280;42646;51.910;7.724;2023-05-11T07:10:32;100835.22;;;14.12;100.00
39265;BME280;42646;51.910;7.724;2023-05-11T07:13:03;100827.41;;;14.19;100.00
39265;BME280;42646;51.910;7.724;2023-05-11T07:15:31;100840.44;;;14.22;100.00
39265;BME280;42646;51.910;7.724;2023-05-11T07:17:59;100833.78;;;14.26;100.00
39265;BME280;42646;51.910;7.724;2023-05-11T07:20:27;100828.97;;;14.30;100.00
39265;BME280;42646;51.910;7.724;2023-05-11T07:22:56;100836.22;;;14.37;100.00
39265;BME280;42646;51.910;7.724;2023-05-11T07:25:26;100836.41;;;14.44;100.00
39265;BME280;42646;51.910;7.724;2023-05-11T07:27:55;100834.81;;;14.51;100.00
39265;BME280;42646;51.910;7.724;2023-05-11T07:30:23;100837.53;;;14.59;100.00
39265;BME280;42646;51.910;7.724;2023-05-11T07:32:54;100833.84;;;14.60;100.00
39265;BME280;42646;51.910;7.724;2023-05-11T07:35:22;100837.75;;;14.66;100.00
39265;BME280;42646;51.910;7.724;2023-05-11T07:37:50;100831.91;;;14.71;100.00
39265;BME280;42646;51.910;7.724;2023-05-11T07:40:18;100836.28;;;14.80;100.00
39265;BME280;42646;51.910;7.724;2023-05-11T07:42:48;100835.47;;;14.87;100.00
39265;BME280;42646;51.910;7.724;2023-05-11T07:45:16;100840.03;;;14.95;100.00
39265;BME280;42646;51.910;7.724;2023-05-11T07:47:43;100833.19;;;15.01;100.00
39265;BME280;42646;51.910;7.724;2023-05-11T07:50:13;100836.38;;;15.04;100.00
39265;BME280;42646;51.910;7.724;2023-05-11T07:52:46;100837.72;;;15.08;100.00
39265;BME280;42646;51.910;7.724;2023-05-11T07:55:16;100835.72;;;15.10;100.00
39265;BME280;42646;51.910;7.724;2023-05-11T07:57:50;100838.06;;;15.13;100.00
39265;BME280;42646;51.910;7.724;2023-05-11T08:00:19;100839.56;;;15.16;100.00
39265;BME280;42646;51.910;7.724;2023-05-11T08:02:49;100839.28;;;15.19;100.00
39265;BME280;42646;51.910;7.724;2023-05-11T08:05:18;100843.44;;;15.21;100.00
39265;BME280;42646;51.910;7.724;2023-05-11T08:07:46;100843.13;;;15.25;100.00
39265;BME280;42646;51.910;7.724;2023-05-11T08:10:15;100842.63;;;15.29;100.00
39265;BME280;42646;51.910;7.724;2023-05-11T08:12:42;100836.78;;;15.34;100.00
39265;BME280;42646;51.910;7.724;2023-05-11T08:15:11;100835.44;;;15.38;100.00
39265;BME280;42646;51.910;7.724;2023-05-11T08:17:40;100834.78;;;15.44;100.00
39265;BME280;42646;51.910;7.724;2023-05-11T08:20:09;100833.47;;;15.48;100.00
39265;BME280;42646;51.910;7.724;2023-05-11T08:22:37;100834.63;;;15.54;100.00
39265;BME280;42646;51.910;7.724;2023-05-11T08:25:07;100845.19;;;15.55;100.00
39265;BME280;42646;51.910;7.724;2023-05-11T08:27:35;100844.34;;;15.55;100.00
39265;BME280;42646;51.910;7.724;2023-05-11T08:30:03;100839.00;;;15.55;100.00
39265;BME280;42646;51.910;7.724;2023-05-11T08:32:32;100837.81;;;15.57;100.00
39265;BME280;42646;51.910;7.724;2023-05-11T08:35:19;100836.63;;;15.52;100.00
39265;BME280;42646;51.910;7.724;2023-05-11T08:37:50;100847.88;;;15.55;100.00
39265;BME280;42646;51.910;7.724;2023-05-11T08:40:18;100842.03;;;15.60;100.00
39265;BME280;42646;51.910;7.724;2023-05-11T08:42:48;100838.19;;;15.62;100.00
39265;BME280;42646;51.910;7.724;2023-05-11T08:45:16;100837.69;;;15.67;100.00
39265;BME280;42646;51.910;7.724;2023-05-11T08:47:46;100832.66;;;15.72;100.00
39265;BME280;42646;51.910;7.724;2023-05-11T08:50:17;100837.50;;;15.76;100.00
39265;BME280;42646;51.910;7.724;2023-05-11T08:52:45;100837.69;;;15.83;100.00
39265;BME280;42646;51.910;7.724;2023-05-11T08:55:13;100834.34;;;15.81;100.00
39265;BME280;42646;51.910;7.724;2023-05-11T08:57:43;100839.03;;;15.87;100.00
39265;BME280;42646;51.910;7.724;2023-05-11T09:00:13;100844.41;;;15.95;100.00
39265;BME280;42646;51.910;7.724;2023-05-11T09:02:43;100844.22;;;16.05;100.00
39265;BME280;42646;51.910;7.724;2023-05-11T09:05:13;100845.38;;;16.11;100.00
39265;BME280;42646;51.910;7.724;2023-05-11T09:07:43;100844.22;;;16.13;100.00
39265;BME280;42646;51.910;7.724;2023-05-11T09:10:14;100837.84;;;16.14;100.00
39265;BME280;42646;51.910;7.724;2023-05-11T09:12:42;100842.00;;;16.17;100.00
39265;BME280;42646;51.910;7.724;2023-05-11T09:15:12;100844.38;;;16.20;100.00
39265;BME280;42646;51.910;7.724;2023-05-11T09:17:40;100842.84;;;16.25;100.00
39265;BME280;42646;51.910;7.724;2023-05-11T09:20:09;100850.22;;;16.32;100.00
39265;BME280;42646;51.910;7.724;2023-05-11T09:22:42;100851.72;;;16.34;100.00
39265;BME280;42646;51.910;7.724;2023-05-11T09:25:10;100842.16;;;16.32;100.00
39265;BME280;42646;51.910;7.724;2023-05-11T09:27:40;100850.03;;;16.33;100.00
39265;BME280;42646;51.910;7.724;2023-05-11T09:30:10;100843.19;;;16.31;100.00
39265;BME280;42646;51.910;7.724;2023-05-11T09:32:47;100846.03;;;16.29;100.00
39265;BME280;42646;51.910;7.724;2023-05-11T09:35:23;100838.97;;;16.28;100.00
39265;BME280;42646;51.910;7.724;2023-05-11T09:38:04;100845.34;;;16.27;100.00
39265;BME280;42646;51.910;7.724;2023-05-11T09:40:34;100846.84;;;16.29;100.00
39265;BME280;42646;51.910;7.724;2023-05-11T09:43:15;100844.69;;;16.33;100.00
39265;BME280;42646;51.910;7.724;2023-05-11T09:45:45;100849.69;;;16.36;100.00
39265;BME280;42646;51.910;7.724;2023-05-11T09:48:24;100854.72;;;16.39;100.00
39265;BME280;42646;51.910;7.724;2023-05-11T09:50:58;100854.22;;;16.36;100.00
39265;BME280;42646;51.910;7.724;2023-05-11T09:53:36;100860.13;;;16.31;100.00
39265;BME280;42646;51.910;7.724;2023-05-11T09:56:05;100860.97;;;16.32;100.00
39265;BME280;42646;51.910;7.724;2023-05-11T09:58:47;100860.28;;;16.29;100.00
39265;BME280;42646;51.910;7.724;2023-05-11T10:01:16;100858.59;;;16.28;100.00
39265;BME280;42646;51.910;7.724;2023-05-11T10:03:47;100858.44;;;16.30;100.00
39265;BME280;42646;51.910;7.724;2023-05-11T10:06:16;100854.06;;;16.29;100.00
39265;BME280;42646;51.910;7.724;2023-05-11T10:08:47;100845.88;;;16.31;100.00
39265;BME280;42646;51.910;7.724;2023-05-11T10:11:15;100847.69;;;16.30;100.00
39265;BME280;42646;51.910;7.724;2023-05-11T10:13:43;100845.34;;;16.27;100.00
39265;BME280;42646;51.910;7.724;2023-05-11T10:16:14;100847.53;;;16.23;100.00
39265;BME280;42646;51.910;7.724;2023-05-11T10:19:09;100848.91;;;16.19;100.00
39265;BME280;42646;51.910;7.724;2023-05-11T10:21:38;100847.19;;;16.18;100.00
39265;BME280;42646;51.910;7.724;2023-05-11T10:24:09;100847.19;;;16.18;100.00
39265;BME280;42646;51.910;7.724;2023-05-11T10:26:40;100847.19;;;16.18;100.00
39265;BME280;42646;51.910;7.724;2023-05-11T10:29:09;100851.75;;;16.18;100.00
39265;BME280;42646;51.910;7.724;2023-05-11T10:31:37;100844.69;;;16.17;100.00
39265;BME280;42646;51.910;7.724;2023-05-11T10:34:06;100844.53;;;16.18;100.00
39265;BME280;42646;51.910;7.724;2023-05-11T10:36:37;100842.84;;;16.17;100.00
39265;BME280;42646;51.910;7.724;2023-05-11T10:39:07;100844.69;;;16.17;100.00
39265;BME280;42646;51.910;7.724;2023-05-11T10:41:46;100844.69;;;16.17;100.00
39265;BME280;42646;51.910;7.724;2023-05-11T10:47:42;100854.44;;;16.10;100.00
39265;BME280;42646;51.910;7.724;2023-05-11T10:50:28;100854.75;;;16.07;100.00
39265;BME280;42646;51.910;7.724;2023-05-11T10:53:02;100857.44;;;16.07;100.00
39265;BME280;42646;51.910;7.724;2023-05-11T10:55:49;100858.13;;;16.00;100.00
39265;BME280;42646;51.910;7.724;2023-05-11T10:59:01;100865.00;;;15.95;100.00
39265;BME280;42646;51.910;7.724;2023-05-11T11:01:58;100864.69;;;15.90;100.00
39265;BME280;42646;51.910;7.724;2023-05-11T11:04:41;100871.56;;;15.84;100.00
39265;BME280;42646;51.910;7.724;2023-05-11T11:07:57;100864.00;;;15.80;100.00
39265;BME280;42646;51.910;7.724;2023-05-11T11:10:30;100865.16;;;15.77;100.00
39265;BME280;42646;51.910;7.724;2023-05-11T11:13:05;100861.00;;;15.74;100.00
39265;BME280;42646;51.910;7.724;2023-05-11T11:16:08;100869.38;;;15.71;100.00
39265;BME280;42646;51.910;7.724;2023-05-11T11:18:37;100857.47;;;15.66;100.00
39265;BME280;42646;51.910;7.724;2023-05-11T11:21:05;100864.69;;;15.65;100.00
39265;BME280;42646;51.910;7.724;2023-05-11T11:23:44;100866.81;;;15.62;100.00
39265;BME280;42646;51.910;7.724;2023-05-11T11:26:16;100862.44;;;15.53;100.00
39265;BME280;42646;51.910;7.724;2023-05-11T11:29:07;100859.25;;;15.49;100.00
39265;BME280;42646;51.910;7.724;2023-05-11T11:31:37;100863.44;;;15.43;100.00
39265;BME280;42646;51.910;7.724;2023-05-11T11:34:34;100857.72;;;15.38;100.00
39265;BME280;42646;51.910;7.724;2023-05-11T11:37:07;100860.91;;;15.34;100.00
39265;BME280;42646;51.910;7.724;2023-05-11T11:39:52;100862.56;;;15.35;100.00
39265;BME280;42646;51.910;7.724;2023-05-11T11:42:39;100865.25;;;15.35;100.00
39265;BME280;42646;51.910;7.724;2023-05-11T11:45:31;100860.41;;;15.38;100.00
39265;BME280;42646;51.910;7.724;2023-05-11T11:48:14;100859.75;;;15.44;100.00
39265;BME280;42646;51.910;7.724;2023-05-11T11:50:45;100862.59;;;15.51;100.00
39265;BME280;42646;51.910;7.724;2023-05-11T11:56:41;100854.41;;;15.61;100.00
39265;BME280;42646;51.910;7.724;2023-05-11T11:59:11;100859.16;;;15.67;100.00
39265;BME280;42646;51.910;7.724;2023-05-11T12:01:42;100854.78;;;15.74;100.00
39265;BME280;42646;51.910;7.724;2023-05-11T12:04:48;100864.00;;;15.80;100.00
39265;BME280;42646;51.910;7.724;2023-05-11T12:07:19;100852.44;;;15.79;100.00
39265;BME280;42646;51.910;7.724;2023-05-11T12:09:48;100849.94;;;15.86;100.00
39265;BME280;42646;51.910;7.724;2023-05-11T12:12:19;100856.13;;;15.94;100.00
39265;BME280;42646;51.910;7.724;2023-05-11T12:14:47;100848.91;;;16.03;100.00
39265;BME280;42646;51.910;7.724;2023-05-11T12:17:27;100852.78;;;16.09;100.00
39265;BME280;42646;51.910;7.724;2023-05-11T12:20:11;100847.75;;;16.14;100.00
39265;BME280;42646;51.910;7.724;2023-05-11T12:22:39;100855.63;;;16.15;100.00
39265;BME280;42646;51.910;7.724;2023-05-11T12:25:08;100858.63;;;16.12;100.00
39265;BME280;42646;51.910;7.724;2023-05-11T12:27:45;100848.91;;;16.11;100.00
39265;BME280;42646;51.910;7.724;2023-05-11T12:30:23;100844.22;;;16.13;100.00
39265;BME280;42646;51.910;7.724;2023-05-11T12:32:53;100843.22;;;16.14;100.00
39265;BME280;42646;51.910;7.724;2023-05-11T12:35:24;100842.38;;;16.14;100.00
39265;BME280;42646;51.910;7.724;2023-05-11T12:37:52;100839.69;;;16.14;100.00
39265;BME280;42646;51.910;7.724;2023-05-11T12:40:22;100845.53;;;16.17;100.00
39265;BME280;42646;51.910;7.724;2023-05-11T12:42:52;100839.16;;;16.18;100.00
39265;BME280;42646;51.910;7.724;2023-05-11T12:45:22;100843.19;;;16.22;100.00
39265;BME280;42646;51.910;7.724;2023-05-11T12:47:53;100840.69;;;16.21;100.00
39265;BME280;42646;51.910;7.724;2023-05-11T12:50:22;100841.19;;;16.16;100.00
39265;BME280;42646;51.910;7.724;2023-05-11T12:52:50;100838.50;;;16.16;100.00
39265;BME280;42646;51.910;7.724;2023-05-11T12:55:27;100836.31;;;16.20;100.00
39265;BME280;42646;51.910;7.724;2023-05-11T12:58:10;100837.31;;;16.27;100.00
39265;BME280;42646;51.910;7.724;2023-05-11T13:00:50;100841.47;;;16.29;100.00
39265;BME280;42646;51.910;7.724;2023-05-11T13:03:21;100845.00;;;16.30;100.00
39265;BME280;42646;51.910;7.724;2023-05-11T13:05:49;100843.69;;;16.26;100.00
39265;BME280;42646;51.910;7.724;2023-05-11T13:08:18;100838.31;;;16.26;100.00
39265;BME280;42646;51.910;7.724;2023-05-11T13:10:45;100836.47;;;16.26;100.00
39265;BME280;42646;51.910;7.724;2023-05-11T13:13:25;100837.63;;;16.24;100.00